createdAt,value
2018-07-04T00:01:57.375Z,4.13
2018-07-04T00:04:37.049Z,4.37
2018-07-04T00:07:16.646Z,4.10
2018-07-04T00:09:56.450Z,4.20
2018-07-04T00:12:36.035Z,5.20
2018-07-04T00:15:15.689Z,3.90
2018-07-04T00:17:55.364Z,4.00
2018-07-04T00:20:40.061Z,4.50
2018-07-04T00:23:19.784Z,5.00
2018-07-04T00:25:59.322Z,4.27
2018-07-04T00:28:39.037Z,4.63
2018-07-04T00:31:18.681Z,4.10
2018-07-04T00:33:58.250Z,4.80
2018-07-04T00:36:37.811Z,4.67
2018-07-04T00:39:17.708Z,4.00
2018-07-04T00:41:57.442Z,4.07
2018-07-04T00:44:37.378Z,4.70
2018-07-04T00:47:17.015Z,3.60
2018-07-04T00:49:50.817Z,4.07
2018-07-04T00:52:30.395Z,4.23
2018-07-04T00:55:10.088Z,4.90
2018-07-04T00:57:49.702Z,4.53
2018-07-04T01:00:29.415Z,5.27
2018-07-04T01:03:09.143Z,4.40
2018-07-04T01:05:48.773Z,5.20
2018-07-04T01:08:28.468Z,4.97
2018-07-04T01:11:08.084Z,5.00
2018-07-04T01:13:47.930Z,5.40
2018-07-04T01:16:27.606Z,5.33
2018-07-04T01:19:07.277Z,5.13
2018-07-04T01:21:46.879Z,5.90
2018-07-04T01:24:26.476Z,5.37
2018-07-04T01:27:06.210Z,5.20
2018-07-04T01:29:45.878Z,4.80
2018-07-04T01:32:25.611Z,5.70
2018-07-04T01:35:05.194Z,4.97
2018-07-04T01:37:44.881Z,5.10
2018-07-04T01:40:24.713Z,5.80
2018-07-04T01:43:04.211Z,6.37
2018-07-04T01:45:43.881Z,5.73
2018-07-04T01:48:23.587Z,6.27
2018-07-04T01:51:03.240Z,5.57
2018-07-04T01:53:42.868Z,6.03
2018-07-04T01:56:22.604Z,4.93
2018-07-04T01:59:02.193Z,6.03
2018-07-04T02:01:41.882Z,5.30
2018-07-04T02:04:21.599Z,5.73
2018-07-04T02:07:01.403Z,6.30
2018-07-04T02:09:41.211Z,6.27
2018-07-04T02:12:20.875Z,5.20
2018-07-04T02:15:00.559Z,6.33
2018-07-04T02:17:40.280Z,6.23
2018-07-04T02:20:19.974Z,6.10
2018-07-04T02:22:59.867Z,5.37
2018-07-04T02:25:39.658Z,5.50
2018-07-04T02:28:19.486Z,6.23
2018-07-04T02:30:59.361Z,6.43
2018-07-04T02:33:39.228Z,5.57
2018-07-04T02:36:19.033Z,6.30
2018-07-04T02:38:58.570Z,6.57
2018-07-04T02:41:38.334Z,6.50
2018-07-04T02:44:18.105Z,6.03
2018-07-04T02:46:57.922Z,6.57
2018-07-04T02:49:37.555Z,18.23
2018-07-04T02:52:17.307Z,32.03
2018-07-04T02:54:57.075Z,18.40
2018-07-04T02:57:36.818Z,8.80
2018-07-04T03:00:16.459Z,7.07
2018-07-04T03:02:56.159Z,6.47
2018-07-04T03:05:35.713Z,6.20
2018-07-04T03:08:15.387Z,5.30
2018-07-04T03:10:55.114Z,6.27
2018-07-04T03:13:34.740Z,6.43
2018-07-04T03:16:14.502Z,6.30
2018-07-04T03:18:54.361Z,5.90
2018-07-04T03:21:34.191Z,6.30
2018-07-04T03:24:13.894Z,5.70
2018-07-04T03:26:53.467Z,5.87
2018-07-04T03:29:32.930Z,5.87
2018-07-04T03:32:12.636Z,5.90
2018-07-04T03:34:52.315Z,5.97
2018-07-04T03:37:31.973Z,6.43
2018-07-04T03:40:11.614Z,6.07
2018-07-04T03:42:51.413Z,6.13
2018-07-04T03:45:31.251Z,5.90
2018-07-04T03:48:10.858Z,6.20
2018-07-04T03:50:44.558Z,5.20
2018-07-04T03:53:24.354Z,5.23
2018-07-04T03:56:04.040Z,6.03
2018-07-04T03:58:44.002Z,5.00
2018-07-04T04:01:17.735Z,5.17
2018-07-04T04:03:57.426Z,4.90
2018-07-04T04:06:37.070Z,6.00
2018-07-04T04:09:16.909Z,4.83
2018-07-04T04:11:56.630Z,5.80
2018-07-04T04:14:36.671Z,5.67
2018-07-04T04:17:10.348Z,5.27
2018-07-04T04:19:50.043Z,4.83
2018-07-04T04:22:29.978Z,5.93
2018-07-04T04:25:09.818Z,6.17
2018-07-04T04:27:49.599Z,5.90
2018-07-04T04:30:29.404Z,5.17
2018-07-04T04:33:09.001Z,6.00
2018-07-04T04:35:48.751Z,6.00
2018-07-04T04:38:28.468Z,6.73
2018-07-04T04:41:08.163Z,5.53
2018-07-04T04:43:47.950Z,5.93
2018-07-04T04:46:27.727Z,5.53
2018-07-04T04:49:08.089Z,5.97
2018-07-04T04:51:47.942Z,5.83
2018-07-04T04:54:27.743Z,6.27
2018-07-04T04:57:07.582Z,5.67
2018-07-04T04:59:47.543Z,6.27
2018-07-04T05:02:21.376Z,5.80
2018-07-04T05:05:01.267Z,6.10
2018-07-04T05:07:40.979Z,6.03
2018-07-04T05:10:20.591Z,6.10
2018-07-04T05:13:00.729Z,6.37
2018-07-04T05:15:40.779Z,6.53
2018-07-04T05:18:20.552Z,6.03
2018-07-04T05:21:00.256Z,6.73
2018-07-04T05:23:40.007Z,5.33
2018-07-04T05:26:19.603Z,5.80
2018-07-04T05:28:59.245Z,5.10
2018-07-04T05:31:39.010Z,4.80
2018-07-04T05:34:18.798Z,4.30
2018-07-04T05:36:58.538Z,4.27
2018-07-04T05:39:38.423Z,3.80
2018-07-04T05:42:18.344Z,4.20
2018-07-04T05:44:58.108Z,5.17
2018-07-04T05:47:37.735Z,4.73
2018-07-04T05:50:17.279Z,4.80
2018-07-04T05:52:56.973Z,4.40
2018-07-04T05:55:36.655Z,4.20
2018-07-04T05:58:16.302Z,5.03
2018-07-04T06:00:56.253Z,4.23
2018-07-04T06:03:36.427Z,4.93
2018-07-04T06:06:16.073Z,4.70
2018-07-04T06:08:55.811Z,5.00
2018-07-04T06:11:35.528Z,5.43
2018-07-04T06:14:15.270Z,4.50
2018-07-04T06:16:54.991Z,5.93
2018-07-04T06:19:34.754Z,4.87
2018-07-04T06:22:14.345Z,4.80
2018-07-04T06:24:54.095Z,4.53
2018-07-04T06:27:33.959Z,4.83
2018-07-04T06:30:13.622Z,5.00
2018-07-04T06:32:53.317Z,4.90
2018-07-04T06:35:33.113Z,4.67
2018-07-04T06:38:00.607Z,4.93
2018-07-04T06:40:27.915Z,4.80
2018-07-04T06:42:55.199Z,4.73
2018-07-04T06:45:22.562Z,5.73
2018-07-04T06:47:49.870Z,4.40
2018-07-04T06:50:17.175Z,4.50
2018-07-04T06:52:44.458Z,4.60
2018-07-04T06:55:11.784Z,4.47
2018-07-04T06:57:39.092Z,3.90
2018-07-04T07:00:06.400Z,4.83
2018-07-04T07:02:33.697Z,3.63
2018-07-04T07:05:13.360Z,3.40
2018-07-04T07:07:53.079Z,3.80
2018-07-04T07:10:32.766Z,4.13
2018-07-04T07:13:12.402Z,3.97
2018-07-04T07:15:52.352Z,4.20
2018-07-04T07:18:32.119Z,3.90
2018-07-04T07:21:11.969Z,3.57
2018-07-04T07:23:51.717Z,3.50
2018-07-04T07:26:31.502Z,3.57
2018-07-04T07:29:11.167Z,4.07
2018-07-04T07:31:50.798Z,3.40
2018-07-04T07:34:30.430Z,3.40
2018-07-04T07:37:10.193Z,4.10
2018-07-04T07:39:49.866Z,3.70
2018-07-04T07:42:29.611Z,3.93
2018-07-04T07:45:09.299Z,3.70
2018-07-04T07:47:48.951Z,4.37
2018-07-04T07:50:28.522Z,3.47
2018-07-04T07:53:08.244Z,3.80
2018-07-04T07:55:47.925Z,4.17
2018-07-04T07:58:27.628Z,4.10
2018-07-04T08:01:07.283Z,3.70
2018-07-04T08:03:46.956Z,4.40
2018-07-04T08:06:26.632Z,3.73
2018-07-04T08:09:06.252Z,4.20
2018-07-04T08:11:46.059Z,4.23
2018-07-04T08:14:25.770Z,3.13
2018-07-04T08:17:05.507Z,3.43
2018-07-04T08:19:45.183Z,3.77
2018-07-04T08:22:24.938Z,4.17
2018-07-04T08:25:04.798Z,4.13
2018-07-04T08:27:44.568Z,3.63
2018-07-04T08:30:24.178Z,3.30
2018-07-04T08:33:03.893Z,3.70
2018-07-04T08:35:43.715Z,3.50
2018-07-04T08:38:23.467Z,3.40
2018-07-04T08:41:03.253Z,2.67
2018-07-04T08:43:43.015Z,3.77
2018-07-04T08:46:22.609Z,2.80
2018-07-04T08:49:02.471Z,3.20
2018-07-04T08:51:42.276Z,2.90
2018-07-04T08:54:22.186Z,2.83
2018-07-04T08:57:01.850Z,3.40
2018-07-04T08:59:41.501Z,3.30
2018-07-04T09:02:21.213Z,3.13
2018-07-04T09:05:00.980Z,3.03
2018-07-04T09:07:40.691Z,3.60
2018-07-04T09:10:20.627Z,4.20
2018-07-04T09:13:00.250Z,4.17
2018-07-04T09:15:40.151Z,3.73
2018-07-04T09:18:20.030Z,3.90
2018-07-04T09:20:59.638Z,4.33
2018-07-04T09:23:39.373Z,4.53
2018-07-04T09:26:19.150Z,4.07
2018-07-04T09:28:58.975Z,5.23
2018-07-04T09:31:38.558Z,5.53
2018-07-04T09:34:18.322Z,5.50
2018-07-04T09:36:58.147Z,5.40
2018-07-04T09:39:37.964Z,5.60
2018-07-04T09:42:17.929Z,5.57
2018-07-04T09:44:57.742Z,5.77
2018-07-04T09:47:37.650Z,5.57
2018-07-04T09:50:17.375Z,6.33
2018-07-04T09:52:57.276Z,5.87
2018-07-04T09:55:36.894Z,5.60
2018-07-04T09:58:17.228Z,5.70
2018-07-04T10:01:02.337Z,5.00
2018-07-04T10:03:41.909Z,5.10
2018-07-04T10:06:22.688Z,4.97
2018-07-04T10:09:02.343Z,4.10
2018-07-04T10:11:42.033Z,4.50
2018-07-04T10:14:21.987Z,3.73
2018-07-04T10:17:01.681Z,3.63
2018-07-04T10:19:42.486Z,4.23
2018-07-04T10:22:22.259Z,3.30
2018-07-04T10:25:02.038Z,3.40
2018-07-04T10:27:41.908Z,3.90
2018-07-04T10:30:21.664Z,2.73
2018-07-04T10:33:01.800Z,3.17
2018-07-04T10:35:35.957Z,3.93
2018-07-04T10:38:15.858Z,3.40
2018-07-04T10:40:55.800Z,3.47
2018-07-04T10:43:35.527Z,3.50
2018-07-04T10:46:15.330Z,4.13
2018-07-04T10:48:55.154Z,4.23
2018-07-04T10:51:34.900Z,4.20
2018-07-04T10:54:14.706Z,6.37
2018-07-04T10:56:54.425Z,5.07
2018-07-04T10:59:34.138Z,4.70
2018-07-04T11:02:13.701Z,7.00
2018-07-04T11:04:53.318Z,4.90
2018-07-04T11:07:33.132Z,5.10
2018-07-04T11:10:14.146Z,4.90
2018-07-04T11:12:53.697Z,4.93
2018-07-04T11:15:33.389Z,4.60
2018-07-04T11:18:13.036Z,3.47
2018-07-04T11:20:52.826Z,4.00
2018-07-04T11:23:32.447Z,3.70
2018-07-04T11:26:12.156Z,4.10
2018-07-04T11:28:51.904Z,4.10
2018-07-04T11:31:31.670Z,4.33
2018-07-04T11:34:11.394Z,4.03
2018-07-04T11:36:51.135Z,4.70
2018-07-04T11:39:30.806Z,4.87
2018-07-04T11:42:10.671Z,4.93
2018-07-04T11:44:50.266Z,3.37
2018-07-04T11:47:17.574Z,3.83
2018-07-04T11:49:44.925Z,3.70
2018-07-04T11:52:12.231Z,4.00
2018-07-04T11:54:39.621Z,3.57
2018-07-04T11:57:06.921Z,3.70
2018-07-04T11:59:34.256Z,4.00
2018-07-04T12:02:01.705Z,3.97
2018-07-04T12:04:41.603Z,4.07
2018-07-04T12:07:09.991Z,4.20
2018-07-04T12:09:39.698Z,3.67
2018-07-04T12:12:07.170Z,4.47
2018-07-04T12:14:34.503Z,3.43
2018-07-04T12:17:01.809Z,3.60
2018-07-04T12:19:29.114Z,4.40
2018-07-04T12:21:56.412Z,3.27
2018-07-04T12:24:23.779Z,3.50
2018-07-04T12:26:51.290Z,2.83
2018-07-04T12:29:18.594Z,3.57
2018-07-04T12:31:45.927Z,3.70
2018-07-04T12:34:13.227Z,2.70
2018-07-04T12:36:40.506Z,3.30
2018-07-04T12:39:07.934Z,3.10
2018-07-04T12:41:35.371Z,3.23
2018-07-04T12:44:02.694Z,2.60
2018-07-04T12:46:30.468Z,2.77
2018-07-04T12:49:01.051Z,2.77
2018-07-04T12:51:29.670Z,2.70
2018-07-04T12:54:02.635Z,2.97
2018-07-04T12:56:43.766Z,2.53
2018-07-04T12:59:23.662Z,2.57
2018-07-04T13:02:04.340Z,2.80
2018-07-04T13:04:45.052Z,2.70
2018-07-04T13:07:25.690Z,2.60
2018-07-04T13:10:05.547Z,2.30
2018-07-04T13:12:45.292Z,2.70
2018-07-04T13:15:25.222Z,2.73
2018-07-04T13:18:04.893Z,2.33
2018-07-04T13:20:44.642Z,2.57
2018-07-04T13:23:24.518Z,2.40
2018-07-04T13:26:04.099Z,2.40
2018-07-04T13:28:43.874Z,2.93
2018-07-04T13:31:23.723Z,2.30
2018-07-04T13:34:03.635Z,2.80
2018-07-04T13:36:43.282Z,2.83
2018-07-04T13:39:22.978Z,2.90
2018-07-04T13:42:02.627Z,2.60
2018-07-04T13:44:42.348Z,2.73
2018-07-04T13:47:22.112Z,3.20
2018-07-04T13:50:02.051Z,3.10
2018-07-04T13:52:41.984Z,2.67
2018-07-04T13:55:22.058Z,2.53
2018-07-04T13:58:02.593Z,2.50
2018-07-04T14:00:42.210Z,2.50
2018-07-04T14:03:21.828Z,3.10
2018-07-04T14:05:55.402Z,2.40
2018-07-04T14:08:35.039Z,2.80
2018-07-04T14:11:14.877Z,4.07
2018-07-04T14:13:54.554Z,3.40
2018-07-04T14:16:35.283Z,3.10
2018-07-04T14:19:14.996Z,3.13
2018-07-04T14:21:54.787Z,3.70
2018-07-04T14:24:34.501Z,3.40
2018-07-04T14:27:14.208Z,3.80
2018-07-04T14:29:53.748Z,4.10
2018-07-04T14:32:33.255Z,3.67
2018-07-04T14:35:13.090Z,4.13
2018-07-04T14:37:52.682Z,4.83
2018-07-04T14:40:32.448Z,4.20
2018-07-04T14:43:12.152Z,4.30
2018-07-04T14:45:51.810Z,4.90
2018-07-04T14:48:31.519Z,5.00
2018-07-04T14:51:11.102Z,4.50
2018-07-04T14:53:51.601Z,4.73
2018-07-04T14:56:31.207Z,4.57
2018-07-04T14:59:10.829Z,4.63
2018-07-04T15:01:50.519Z,4.10
2018-07-04T15:04:30.300Z,5.00
2018-07-04T15:07:10.112Z,4.00
2018-07-04T15:09:49.981Z,3.90
2018-07-04T15:12:29.777Z,3.93
2018-07-04T15:15:09.340Z,4.00
2018-07-04T15:17:49.161Z,4.10
2018-07-04T15:20:28.911Z,3.43
2018-07-04T15:23:08.567Z,3.80
2018-07-04T15:25:48.096Z,4.23
2018-07-04T15:28:27.786Z,4.00
2018-07-04T15:31:07.601Z,3.80
2018-07-04T15:33:47.255Z,4.23
2018-07-04T15:36:26.955Z,3.20
2018-07-04T15:39:06.805Z,2.97
2018-07-04T15:41:46.562Z,2.73
2018-07-04T15:44:26.209Z,3.30
2018-07-04T15:47:06.008Z,2.70
2018-07-04T15:49:49.971Z,2.40
2018-07-04T15:52:30.613Z,2.63
2018-07-04T15:55:10.251Z,2.63
2018-07-04T15:57:49.919Z,2.50
2018-07-04T16:00:30.606Z,2.70
2018-07-04T16:03:10.667Z,2.43
2018-07-04T16:05:50.868Z,2.20
2018-07-04T16:08:31.209Z,2.73
2018-07-04T16:11:11.110Z,3.00
2018-07-04T16:13:51.002Z,2.57
2018-07-04T16:16:30.683Z,2.50
2018-07-04T16:19:10.252Z,2.40
2018-07-04T16:21:49.937Z,3.03
2018-07-04T16:24:29.729Z,2.50
2018-07-04T16:27:09.834Z,2.90
2018-07-04T16:29:49.543Z,2.50
2018-07-04T16:32:29.011Z,2.90
2018-07-04T16:35:08.723Z,2.90
2018-07-04T16:37:48.523Z,2.80
2018-07-04T16:40:28.425Z,3.30
2018-07-04T16:43:08.260Z,2.87
2018-07-04T16:45:48.367Z,2.53
2018-07-04T16:48:28.307Z,2.87
2018-07-04T16:51:07.939Z,2.97
2018-07-04T16:53:47.667Z,3.03
2018-07-04T16:56:27.414Z,1.73
2018-07-04T16:59:07.001Z,2.60
2018-07-04T17:01:46.751Z,2.00
2018-07-04T17:04:26.451Z,2.30
2018-07-04T17:07:06.282Z,2.00
2018-07-04T17:09:46.142Z,2.13
2018-07-04T17:12:26.031Z,2.30
2018-07-04T17:15:05.738Z,2.50
2018-07-04T17:17:45.347Z,2.10
2018-07-04T17:20:24.999Z,2.03
2018-07-04T17:23:05.029Z,2.33
2018-07-04T17:25:44.856Z,2.47
2018-07-04T17:28:25.453Z,2.10
2018-07-04T17:31:05.223Z,2.30
2018-07-04T17:33:44.964Z,2.70
2018-07-04T17:36:24.712Z,2.07
2018-07-04T17:39:05.272Z,2.50
2018-07-04T17:41:45.403Z,2.40
2018-07-04T17:44:24.968Z,2.40
2018-07-04T17:47:04.785Z,2.90
2018-07-04T17:49:44.443Z,2.30
2018-07-04T17:52:24.362Z,2.50
2018-07-04T17:55:04.310Z,3.10
2018-07-04T17:57:44.015Z,2.07
2018-07-04T18:00:23.747Z,2.80
2018-07-04T18:03:03.487Z,2.80
2018-07-04T18:05:43.116Z,2.80
2018-07-04T18:08:22.857Z,3.30
2018-07-04T18:11:02.691Z,2.30
2018-07-04T18:13:42.431Z,3.17
2018-07-04T18:16:22.203Z,2.83
2018-07-04T18:19:02.101Z,2.60
2018-07-04T18:21:41.961Z,3.20
2018-07-04T18:24:21.494Z,3.10
2018-07-04T18:27:01.085Z,2.70
2018-07-04T18:29:40.794Z,2.50
2018-07-04T18:32:20.713Z,2.70
2018-07-04T18:35:00.524Z,3.20
2018-07-04T18:37:40.211Z,3.03
2018-07-04T18:40:19.868Z,3.47
2018-07-04T18:42:59.661Z,2.90
2018-07-04T18:45:39.381Z,3.30
2018-07-04T18:48:19.500Z,2.73
2018-07-04T18:50:59.199Z,2.77
2018-07-04T18:53:39.015Z,2.70
2018-07-04T18:56:18.840Z,2.80
2018-07-04T18:58:58.741Z,2.80
2018-07-04T19:01:38.423Z,3.87
2018-07-04T19:04:18.100Z,3.03
2018-07-04T19:06:57.943Z,2.90
2018-07-04T19:09:37.657Z,3.60
2018-07-04T19:12:17.417Z,2.97
2018-07-04T19:14:56.987Z,3.50
2018-07-04T19:17:36.595Z,3.67
2018-07-04T19:20:16.260Z,3.63
2018-07-04T19:22:55.902Z,3.60
2018-07-04T19:25:35.431Z,3.73
2018-07-04T19:28:15.270Z,3.60
2018-07-04T19:30:55.139Z,4.30
2018-07-04T19:33:35.486Z,3.80
2018-07-04T19:36:15.231Z,3.30
2018-07-04T19:38:55.954Z,3.50
2018-07-04T19:41:35.722Z,3.00
2018-07-04T19:44:15.342Z,3.70
2018-07-04T19:46:55.136Z,3.10
2018-07-04T19:49:35.060Z,3.73
2018-07-04T19:52:14.988Z,3.90
2018-07-04T19:54:54.914Z,3.87
2018-07-04T19:57:34.530Z,3.90
2018-07-04T20:00:14.253Z,3.87
2018-07-04T20:02:53.954Z,3.70
2018-07-04T20:05:33.878Z,3.90
2018-07-04T20:08:13.740Z,3.47
2018-07-04T20:10:53.564Z,3.90
2018-07-04T20:13:33.224Z,3.30
2018-07-04T20:16:13.029Z,3.53
2018-07-04T20:18:52.941Z,4.37
2018-07-04T20:21:32.906Z,4.70
2018-07-04T20:24:12.673Z,4.40
2018-07-04T20:26:52.428Z,4.67
2018-07-04T20:29:32.101Z,4.70
2018-07-04T20:32:11.808Z,5.30
2018-07-04T20:34:51.522Z,5.20
2018-07-04T20:37:31.182Z,4.37
2018-07-04T20:40:11.027Z,4.27
2018-07-04T20:42:50.754Z,4.93
2018-07-04T20:45:30.433Z,4.70
2018-07-04T20:48:10.140Z,5.33
2018-07-04T20:50:49.856Z,4.90
2018-07-04T20:53:29.608Z,4.93
2018-07-04T20:56:09.304Z,5.00
2018-07-04T20:58:48.996Z,5.20
2018-07-04T21:01:28.739Z,5.80
2018-07-04T21:04:08.677Z,4.57
2018-07-04T21:06:48.495Z,5.10
2018-07-04T21:09:28.421Z,5.30
2018-07-04T21:12:08.200Z,4.97
2018-07-04T21:14:47.969Z,5.20
2018-07-04T21:17:27.545Z,5.20
2018-07-04T21:20:07.403Z,4.73
2018-07-04T21:22:47.619Z,4.80
2018-07-04T21:25:27.514Z,5.47
2018-07-04T21:28:07.170Z,4.40
2018-07-04T21:30:46.988Z,4.70
2018-07-04T21:33:26.546Z,5.60
2018-07-04T21:36:06.255Z,5.13
2018-07-04T21:38:46.036Z,5.73
2018-07-04T21:41:25.659Z,5.70
2018-07-04T21:44:05.573Z,5.57
2018-07-04T21:46:45.444Z,5.87
2018-07-04T21:49:25.110Z,5.23
2018-07-04T21:52:04.770Z,6.90
2018-07-04T21:54:44.472Z,5.43
2018-07-04T21:57:24.159Z,5.40
2018-07-04T22:00:04.093Z,5.33
2018-07-04T22:02:43.831Z,5.10
2018-07-04T22:05:23.439Z,5.43
2018-07-04T22:08:03.384Z,5.50
2018-07-04T22:10:43.208Z,5.03
2018-07-04T22:13:22.931Z,5.93
2018-07-04T22:16:02.394Z,5.47
2018-07-04T22:18:42.052Z,6.53
2018-07-04T22:21:21.834Z,6.03
2018-07-04T22:24:01.495Z,7.13
2018-07-04T22:26:41.402Z,6.60
2018-07-04T22:29:21.220Z,6.03
2018-07-04T22:32:01.004Z,6.97
2018-07-04T22:34:40.533Z,7.13
2018-07-04T22:37:20.335Z,7.00
2018-07-04T22:40:00.220Z,6.73
2018-07-04T22:42:39.945Z,7.20
2018-07-04T22:45:19.761Z,7.03
2018-07-04T22:47:59.432Z,6.77
2018-07-04T22:50:39.139Z,6.30
2018-07-04T22:53:18.788Z,7.10
2018-07-04T22:55:58.797Z,6.77
2018-07-04T22:58:38.860Z,7.90
2018-07-04T23:01:18.516Z,6.03
2018-07-04T23:03:58.117Z,6.60
2018-07-04T23:06:37.959Z,6.63
2018-07-04T23:09:17.893Z,7.50
2018-07-04T23:11:57.629Z,7.97
2018-07-04T23:14:37.709Z,7.47
2018-07-04T23:17:17.564Z,7.70
2018-07-04T23:19:57.298Z,8.20
2018-07-04T23:22:36.868Z,7.60
2018-07-04T23:25:16.597Z,7.60
2018-07-04T23:27:56.385Z,7.10
2018-07-04T23:30:35.977Z,8.13
2018-07-04T23:33:15.714Z,8.33
2018-07-04T23:35:55.655Z,7.20
2018-07-04T23:38:35.359Z,6.43
2018-07-04T23:41:15.260Z,8.10
2018-07-04T23:43:55.019Z,7.60
2018-07-04T23:46:28.745Z,8.27
2018-07-04T23:49:08.652Z,8.60
2018-07-04T23:51:48.295Z,7.60
2018-07-04T23:54:27.960Z,7.90
2018-07-04T23:57:07.828Z,7.67
2018-07-04T23:59:47.883Z,7.23
